sensor_id;sensor_type;location;lat;lon;timestamp;P1;durP1;ratioP1;P2;durP2;ratioP2
68806;SDS011;55800;54.272;18.558;2024-01-16T00:01:43;3.35;;;3.15;;
68806;SDS011;55800;54.272;18.558;2024-01-16T00:04:13;4.32;;;3.95;;
68806;SDS011;55800;54.272;18.558;2024-01-16T00:06:43;4.07;;;3.78;;
68806;SDS011;55800;54.272;18.558;2024-01-16T00:09:15;3.33;;;3.13;;
68806;SDS011;55800;54.272;18.558;2024-01-16T00:11:45;3.13;;;2.93;;
68806;SDS011;55800;54.272;18.558;2024-01-16T00:14:14;4.20;;;3.67;;
68806;SDS011;55800;54.272;18.558;2024-01-16T00:16:44;5.75;;;3.10;;
68806;SDS011;55800;54.272;18.558;2024-01-16T00:19:14;3.33;;;3.03;;
68806;SDS011;55800;54.272;18.558;2024-01-16T00:21:44;2.90;;;2.80;;
68806;SDS011;55800;54.272;18.558;2024-01-16T00:24:15;3.72;;;2.78;;
68806;SDS011;55800;54.272;18.558;2024-01-16T00:26:45;4.40;;;2.97;;
68806;SDS011;55800;54.272;18.558;2024-01-16T00:29:16;3.38;;;3.10;;
68806;SDS011;55800;54.272;18.558;2024-01-16T00:31:46;3.25;;;3.05;;
68806;SDS011;55800;54.272;18.558;2024-01-16T00:34:16;4.03;;;2.70;;
68806;SDS011;55800;54.272;18.558;2024-01-16T00:36:45;3.92;;;3.67;;
68806;SDS011;55800;54.272;18.558;2024-01-16T00:39:16;3.00;;;2.80;;
68806;SDS011;55800;54.272;18.558;2024-01-16T00:41:46;4.47;;;3.63;;
68806;SDS011;55800;54.272;18.558;2024-01-16T00:44:15;3.22;;;3.00;;
68806;SDS011;55800;54.272;18.558;2024-01-16T00:46:45;3.42;;;3.22;;
68806;SDS011;55800;54.272;18.558;2024-01-16T00:49:14;3.88;;;3.50;;
68806;SDS011;55800;54.272;18.558;2024-01-16T00:51:48;4.60;;;3.77;;
68806;SDS011;55800;54.272;18.558;2024-01-16T00:54:18;2.88;;;2.67;;
68806;SDS011;55800;54.272;18.558;2024-01-16T00:56:48;3.10;;;2.90;;
68806;SDS011;55800;54.272;18.558;2024-01-16T00:59:22;2.70;;;2.50;;
68806;SDS011;55800;54.272;18.558;2024-01-16T01:04:21;2.80;;;2.70;;
68806;SDS011;55800;54.272;18.558;2024-01-16T01:06:50;3.30;;;3.10;;
68806;SDS011;55800;54.272;18.558;2024-01-16T01:09:21;5.13;;;3.03;;
68806;SDS011;55800;54.272;18.558;2024-01-16T01:11:51;3.90;;;2.50;;
68806;SDS011;55800;54.272;18.558;2024-01-16T01:14:20;3.80;;;3.50;;
68806;SDS011;55800;54.272;18.558;2024-01-16T01:16:50;2.80;;;2.60;;
68806;SDS011;55800;54.272;18.558;2024-01-16T01:19:19;5.63;;;3.05;;
68806;SDS011;55800;54.272;18.558;2024-01-16T01:21:49;3.10;;;2.90;;
68806;SDS011;55800;54.272;18.558;2024-01-16T01:24:18;3.40;;;2.92;;
68806;SDS011;55800;54.272;18.558;2024-01-16T01:26:49;4.55;;;3.88;;
68806;SDS011;55800;54.272;18.558;2024-01-16T01:29:19;2.60;;;2.50;;
68806;SDS011;55800;54.272;18.558;2024-01-16T01:31:48;3.10;;;2.95;;
68806;SDS011;55800;54.272;18.558;2024-01-16T01:34:18;3.53;;;3.22;;
68806;SDS011;55800;54.272;18.558;2024-01-16T01:36:48;2.83;;;2.72;;
68806;SDS011;55800;54.272;18.558;2024-01-16T01:39:17;5.38;;;3.20;;
68806;SDS011;55800;54.272;18.558;2024-01-16T01:41:46;3.00;;;2.70;;
68806;SDS011;55800;54.272;18.558;2024-01-16T01:44:17;3.03;;;2.83;;
68806;SDS011;55800;54.272;18.558;2024-01-16T01:46:47;2.53;;;2.43;;
68806;SDS011;55800;54.272;18.558;2024-01-16T01:49:16;2.88;;;2.75;;
68806;SDS011;55800;54.272;18.558;2024-01-16T01:51:46;3.90;;;3.05;;
68806;SDS011;55800;54.272;18.558;2024-01-16T01:54:16;3.30;;;2.70;;
68806;SDS011;55800;54.272;18.558;2024-01-16T01:56:49;3.10;;;2.90;;
68806;SDS011;55800;54.272;18.558;2024-01-16T01:59:20;7.50;;;4.82;;
68806;SDS011;55800;54.272;18.558;2024-01-16T02:01:51;4.30;;;3.90;;
68806;SDS011;55800;54.272;18.558;2024-01-16T02:04:22;3.83;;;3.37;;
68806;SDS011;55800;54.272;18.558;2024-01-16T02:06:53;3.70;;;3.40;;
68806;SDS011;55800;54.272;18.558;2024-01-16T02:09:23;4.30;;;3.83;;
68806;SDS011;55800;54.272;18.558;2024-01-16T02:11:53;5.53;;;4.95;;
68806;SDS011;55800;54.272;18.558;2024-01-16T02:14:24;8.57;;;4.25;;
68806;SDS011;55800;54.272;18.558;2024-01-16T02:16:53;6.60;;;4.67;;
68806;SDS011;55800;54.272;18.558;2024-01-16T02:19:23;9.25;;;5.88;;
68806;SDS011;55800;54.272;18.558;2024-01-16T02:21:54;9.20;;;3.95;;
68806;SDS011;55800;54.272;18.558;2024-01-16T02:24:29;11.53;;;6.53;;
68806;SDS011;55800;54.272;18.558;2024-01-16T02:26:58;12.20;;;6.10;;
68806;SDS011;55800;54.272;18.558;2024-01-16T02:29:28;6.85;;;5.43;;
68806;SDS011;55800;54.272;18.558;2024-01-16T02:31:57;8.93;;;5.25;;
68806;SDS011;55800;54.272;18.558;2024-01-16T02:34:27;3.75;;;3.45;;
68806;SDS011;55800;54.272;18.558;2024-01-16T02:36:57;6.45;;;3.35;;
68806;SDS011;55800;54.272;18.558;2024-01-16T02:39:26;2.75;;;2.65;;
68806;SDS011;55800;54.272;18.558;2024-01-16T02:41:57;3.30;;;3.00;;
68806;SDS011;55800;54.272;18.558;2024-01-16T02:44:26;8.50;;;2.97;;
68806;SDS011;55800;54.272;18.558;2024-01-16T02:46:56;3.83;;;3.45;;
68806;SDS011;55800;54.272;18.558;2024-01-16T02:49:25;4.45;;;3.28;;
68806;SDS011;55800;54.272;18.558;2024-01-16T02:51:56;2.80;;;2.60;;
68806;SDS011;55800;54.272;18.558;2024-01-16T02:54:25;3.10;;;2.90;;
68806;SDS011;55800;54.272;18.558;2024-01-16T02:56:56;3.30;;;3.00;;
68806;SDS011;55800;54.272;18.558;2024-01-16T02:59:25;3.07;;;2.77;;
68806;SDS011;55800;54.272;18.558;2024-01-16T03:01:57;4.40;;;3.00;;
68806;SDS011;55800;54.272;18.558;2024-01-16T03:04:28;3.13;;;2.93;;
68806;SDS011;55800;54.272;18.558;2024-01-16T03:06:58;2.85;;;2.60;;
68806;SDS011;55800;54.272;18.558;2024-01-16T03:09:27;3.15;;;2.95;;
68806;SDS011;55800;54.272;18.558;2024-01-16T03:11:59;2.80;;;2.70;;
68806;SDS011;55800;54.272;18.558;2024-01-16T03:14:28;2.97;;;2.77;;
68806;SDS011;55800;54.272;18.558;2024-01-16T03:17:01;3.20;;;2.93;;
68806;SDS011;55800;54.272;18.558;2024-01-16T03:19:30;3.15;;;2.95;;
68806;SDS011;55800;54.272;18.558;2024-01-16T03:22:00;3.55;;;3.35;;
68806;SDS011;55800;54.272;18.558;2024-01-16T03:27:01;4.55;;;3.20;;
68806;SDS011;55800;54.272;18.558;2024-01-16T03:29:31;2.90;;;2.70;;
68806;SDS011;55800;54.272;18.558;2024-01-16T03:32:01;3.30;;;3.10;;
68806;SDS011;55800;54.272;18.558;2024-01-16T03:34:30;3.85;;;3.55;;
68806;SDS011;55800;54.272;18.558;2024-01-16T03:37:00;4.35;;;3.85;;
68806;SDS011;55800;54.272;18.558;2024-01-16T03:39:30;5.10;;;3.42;;
68806;SDS011;55800;54.272;18.558;2024-01-16T03:42:01;5.90;;;3.40;;
68806;SDS011;55800;54.272;18.558;2024-01-16T03:44:30;3.20;;;3.00;;
68806;SDS011;55800;54.272;18.558;2024-01-16T03:47:00;4.00;;;3.55;;
68806;SDS011;55800;54.272;18.558;2024-01-16T03:49:30;3.37;;;3.07;;
68806;SDS011;55800;54.272;18.558;2024-01-16T03:52:00;3.20;;;2.90;;
68806;SDS011;55800;54.272;18.558;2024-01-16T03:54:29;2.95;;;2.80;;
68806;SDS011;55800;54.272;18.558;2024-01-16T03:56:59;3.40;;;3.10;;
68806;SDS011;55800;54.272;18.558;2024-01-16T03:59:29;12.47;;;3.63;;
68806;SDS011;55800;54.272;18.558;2024-01-16T04:02:00;3.50;;;3.20;;
68806;SDS011;55800;54.272;18.558;2024-01-16T04:04:30;5.57;;;3.20;;
68806;SDS011;55800;54.272;18.558;2024-01-16T04:06:59;3.22;;;3.03;;
68806;SDS011;55800;54.272;18.558;2024-01-16T04:09:29;3.50;;;3.20;;
68806;SDS011;55800;54.272;18.558;2024-01-16T04:11:58;4.50;;;2.70;;
68806;SDS011;55800;54.272;18.558;2024-01-16T04:14:29;7.37;;;3.50;;
68806;SDS011;55800;54.272;18.558;2024-01-16T04:16:59;2.85;;;2.65;;
68806;SDS011;55800;54.272;18.558;2024-01-16T04:19:28;3.13;;;2.83;;
68806;SDS011;55800;54.272;18.558;2024-01-16T04:22:01;3.10;;;2.80;;
68806;SDS011;55800;54.272;18.558;2024-01-16T04:24:31;3.77;;;2.67;;
68806;SDS011;55800;54.272;18.558;2024-01-16T04:27:03;3.10;;;2.80;;
68806;SDS011;55800;54.272;18.558;2024-01-16T04:29:32;2.60;;;2.50;;
68806;SDS011;55800;54.272;18.558;2024-01-16T04:32:04;3.87;;;2.80;;
68806;SDS011;55800;54.272;18.558;2024-01-16T04:34:34;3.13;;;2.92;;
68806;SDS011;55800;54.272;18.558;2024-01-16T04:37:03;7.35;;;4.05;;
68806;SDS011;55800;54.272;18.558;2024-01-16T04:39:33;3.17;;;2.60;;
68806;SDS011;55800;54.272;18.558;2024-01-16T04:42:04;3.70;;;2.95;;
68806;SDS011;55800;54.272;18.558;2024-01-16T04:44:33;3.57;;;3.27;;
68806;SDS011;55800;54.272;18.558;2024-01-16T04:47:03;3.38;;;3.03;;
68806;SDS011;55800;54.272;18.558;2024-01-16T04:49:32;3.30;;;3.03;;
68806;SDS011;55800;54.272;18.558;2024-01-16T04:52:03;3.92;;;3.33;;
68806;SDS011;55800;54.272;18.558;2024-01-16T04:54:33;3.40;;;3.10;;
68806;SDS011;55800;54.272;18.558;2024-01-16T04:57:04;2.50;;;2.40;;
68806;SDS011;55800;54.272;18.558;2024-01-16T04:59:34;3.20;;;3.00;;
68806;SDS011;55800;54.272;18.558;2024-01-16T05:02:03;2.92;;;2.72;;
68806;SDS011;55800;54.272;18.558;2024-01-16T05:04:33;2.55;;;2.45;;
68806;SDS011;55800;54.272;18.558;2024-01-16T05:07:06;3.27;;;2.97;;
68806;SDS011;55800;54.272;18.558;2024-01-16T05:09:35;3.05;;;2.80;;
68806;SDS011;55800;54.272;18.558;2024-01-16T05:12:06;3.85;;;3.42;;
68806;SDS011;55800;54.272;18.558;2024-01-16T05:14:36;6.17;;;3.30;;
68806;SDS011;55800;54.272;18.558;2024-01-16T05:17:05;4.22;;;3.33;;
68806;SDS011;55800;54.272;18.558;2024-01-16T05:19:35;3.58;;;3.30;;
68806;SDS011;55800;54.272;18.558;2024-01-16T05:24:34;3.63;;;3.33;;
68806;SDS011;55800;54.272;18.558;2024-01-16T05:27:04;3.65;;;3.40;;
68806;SDS011;55800;54.272;18.558;2024-01-16T05:29:36;7.00;;;4.93;;
68806;SDS011;55800;54.272;18.558;2024-01-16T05:32:10;3.90;;;3.23;;
68806;SDS011;55800;54.272;18.558;2024-01-16T05:34:41;4.47;;;3.93;;
68806;SDS011;55800;54.272;18.558;2024-01-16T05:37:11;3.97;;;3.25;;
68806;SDS011;55800;54.272;18.558;2024-01-16T05:39:40;3.50;;;3.20;;
68806;SDS011;55800;54.272;18.558;2024-01-16T05:42:12;3.53;;;3.22;;
68806;SDS011;55800;54.272;18.558;2024-01-16T05:44:41;4.10;;;3.70;;
68806;SDS011;55800;54.272;18.558;2024-01-16T05:47:11;3.30;;;3.10;;
68806;SDS011;55800;54.272;18.558;2024-01-16T05:49:42;3.23;;;2.93;;
68806;SDS011;55800;54.272;18.558;2024-01-16T05:52:12;3.50;;;3.20;;
68806;SDS011;55800;54.272;18.558;2024-01-16T05:54:41;3.75;;;3.45;;
68806;SDS011;55800;54.272;18.558;2024-01-16T05:57:13;2.72;;;2.63;;
68806;SDS011;55800;54.272;18.558;2024-01-16T05:59:42;4.07;;;3.20;;
68806;SDS011;55800;54.272;18.558;2024-01-16T06:02:12;3.38;;;3.15;;
68806;SDS011;55800;54.272;18.558;2024-01-16T06:04:41;4.45;;;2.70;;
68806;SDS011;55800;54.272;18.558;2024-01-16T06:07:11;3.58;;;3.05;;
68806;SDS011;55800;54.272;18.558;2024-01-16T06:09:40;3.63;;;3.30;;
68806;SDS011;55800;54.272;18.558;2024-01-16T06:12:10;2.90;;;2.70;;
68806;SDS011;55800;54.272;18.558;2024-01-16T06:14:41;3.10;;;2.90;;
68806;SDS011;55800;54.272;18.558;2024-01-16T06:17:10;3.65;;;3.33;;
68806;SDS011;55800;54.272;18.558;2024-01-16T06:19:39;3.25;;;3.08;;
68806;SDS011;55800;54.272;18.558;2024-01-16T06:22:09;4.07;;;3.67;;
68806;SDS011;55800;54.272;18.558;2024-01-16T06:24:39;3.95;;;3.65;;
68806;SDS011;55800;54.272;18.558;2024-01-16T06:27:08;3.08;;;2.95;;
68806;SDS011;55800;54.272;18.558;2024-01-16T06:29:39;4.20;;;4.00;;
68806;SDS011;55800;54.272;18.558;2024-01-16T06:32:08;4.63;;;3.90;;
68806;SDS011;55800;54.272;18.558;2024-01-16T06:34:38;3.30;;;3.10;;
68806;SDS011;55800;54.272;18.558;2024-01-16T06:37:08;3.78;;;3.47;;
68806;SDS011;55800;54.272;18.558;2024-01-16T06:39:37;3.83;;;3.25;;
68806;SDS011;55800;54.272;18.558;2024-01-16T06:42:08;3.30;;;3.10;;
68806;SDS011;55800;54.272;18.558;2024-01-16T06:44:39;6.85;;;4.30;;
68806;SDS011;55800;54.272;18.558;2024-01-16T06:47:09;3.43;;;3.10;;
68806;SDS011;55800;54.272;18.558;2024-01-16T06:49:38;8.70;;;4.03;;
68806;SDS011;55800;54.272;18.558;2024-01-16T06:52:08;3.95;;;3.67;;
68806;SDS011;55800;54.272;18.558;2024-01-16T06:54:38;8.25;;;5.13;;
68806;SDS011;55800;54.272;18.558;2024-01-16T06:57:07;7.13;;;4.35;;
68806;SDS011;55800;54.272;18.558;2024-01-16T06:59:37;5.53;;;4.90;;
68806;SDS011;55800;54.272;18.558;2024-01-16T07:02:08;5.55;;;4.97;;
68806;SDS011;55800;54.272;18.558;2024-01-16T07:04:37;11.77;;;5.43;;
68806;SDS011;55800;54.272;18.558;2024-01-16T07:07:07;5.95;;;4.63;;
68806;SDS011;55800;54.272;18.558;2024-01-16T07:09:36;11.48;;;5.88;;
68806;SDS011;55800;54.272;18.558;2024-01-16T07:12:06;4.55;;;4.15;;
68806;SDS011;55800;54.272;18.558;2024-01-16T07:14:35;3.78;;;3.38;;
68806;SDS011;55800;54.272;18.558;2024-01-16T07:17:08;5.97;;;4.23;;
68806;SDS011;55800;54.272;18.558;2024-01-16T07:19:38;5.33;;;4.33;;
68806;SDS011;55800;54.272;18.558;2024-01-16T07:22:07;4.35;;;3.88;;
68806;SDS011;55800;54.272;18.558;2024-01-16T07:24:37;3.17;;;2.95;;
68806;SDS011;55800;54.272;18.558;2024-01-16T07:27:07;4.43;;;3.83;;
68806;SDS011;55800;54.272;18.558;2024-01-16T07:29:36;5.88;;;4.75;;
68806;SDS011;55800;54.272;18.558;2024-01-16T07:32:09;5.00;;;4.30;;
68806;SDS011;55800;54.272;18.558;2024-01-16T07:34:38;6.67;;;4.37;;
68806;SDS011;55800;54.272;18.558;2024-01-16T07:37:08;4.32;;;3.95;;
68806;SDS011;55800;54.272;18.558;2024-01-16T07:39:37;11.00;;;6.13;;
68806;SDS011;55800;54.272;18.558;2024-01-16T07:42:07;8.07;;;5.40;;
68806;SDS011;55800;54.272;18.558;2024-01-16T07:44:37;8.20;;;4.95;;
68806;SDS011;55800;54.272;18.558;2024-01-16T07:47:06;4.60;;;4.07;;
68806;SDS011;55800;54.272;18.558;2024-01-16T07:49:37;4.13;;;3.70;;
68806;SDS011;55800;54.272;18.558;2024-01-16T07:52:07;5.65;;;4.22;;
68806;SDS011;55800;54.272;18.558;2024-01-16T07:54:36;4.25;;;3.92;;
68806;SDS011;55800;54.272;18.558;2024-01-16T07:57:06;7.43;;;5.50;;
68806;SDS011;55800;54.272;18.558;2024-01-16T07:59:35;5.60;;;4.25;;
68806;SDS011;55800;54.272;18.558;2024-01-16T08:02:05;4.22;;;3.95;;
68806;SDS011;55800;54.272;18.558;2024-01-16T08:04:37;5.10;;;4.70;;
68806;SDS011;55800;54.272;18.558;2024-01-16T08:07:07;7.93;;;4.00;;
68806;SDS011;55800;54.272;18.558;2024-01-16T08:09:36;7.80;;;4.75;;
68806;SDS011;55800;54.272;18.558;2024-01-16T08:12:06;4.07;;;3.75;;
68806;SDS011;55800;54.272;18.558;2024-01-16T08:14:35;9.00;;;4.07;;
68806;SDS011;55800;54.272;18.558;2024-01-16T08:17:05;4.03;;;3.72;;
68806;SDS011;55800;54.272;18.558;2024-01-16T08:19:35;3.28;;;3.08;;
68806;SDS011;55800;54.272;18.558;2024-01-16T08:22:06;6.37;;;4.67;;
68806;SDS011;55800;54.272;18.558;2024-01-16T08:24:35;5.88;;;5.38;;
68806;SDS011;55800;54.272;18.558;2024-01-16T08:27:06;9.73;;;5.17;;
68806;SDS011;55800;54.272;18.558;2024-01-16T08:29:35;6.53;;;4.68;;
68806;SDS011;55800;54.272;18.558;2024-01-16T08:32:05;6.45;;;5.00;;
68806;SDS011;55800;54.272;18.558;2024-01-16T08:34:34;5.20;;;4.78;;
68806;SDS011;55800;54.272;18.558;2024-01-16T08:37:05;12.90;;;7.30;;
68806;SDS011;55800;54.272;18.558;2024-01-16T08:39:34;7.37;;;4.60;;
68806;SDS011;55800;54.272;18.558;2024-01-16T08:42:04;14.32;;;6.72;;
68806;SDS011;55800;54.272;18.558;2024-01-16T08:44:34;6.68;;;5.40;;
68806;SDS011;55800;54.272;18.558;2024-01-16T08:47:03;5.88;;;4.75;;
68806;SDS011;55800;54.272;18.558;2024-01-16T08:49:33;4.95;;;4.45;;
68806;SDS011;55800;54.272;18.558;2024-01-16T08:52:03;5.40;;;4.90;;
68806;SDS011;55800;54.272;18.558;2024-01-16T08:54:34;7.80;;;4.37;;
68806;SDS011;55800;54.272;18.558;2024-01-16T08:57:03;12.75;;;4.97;;
68806;SDS011;55800;54.272;18.558;2024-01-16T08:59:33;8.10;;;4.50;;
68806;SDS011;55800;54.272;18.558;2024-01-16T09:02:03;10.10;;;5.80;;
68806;SDS011;55800;54.272;18.558;2024-01-16T09:04:32;4.15;;;3.78;;
68806;SDS011;55800;54.272;18.558;2024-01-16T09:07:05;3.10;;;2.93;;
68806;SDS011;55800;54.272;18.558;2024-01-16T09:09:35;7.37;;;4.00;;
68806;SDS011;55800;54.272;18.558;2024-01-16T09:12:05;9.30;;;5.65;;
68806;SDS011;55800;54.272;18.558;2024-01-16T09:14:34;7.43;;;4.38;;
68806;SDS011;55800;54.272;18.558;2024-01-16T09:17:04;6.70;;;4.68;;
68806;SDS011;55800;54.272;18.558;2024-01-16T09:19:33;4.25;;;3.60;;
68806;SDS011;55800;54.272;18.558;2024-01-16T09:22:03;11.02;;;4.03;;
68806;SDS011;55800;54.272;18.558;2024-01-16T09:24:34;6.50;;;4.57;;
68806;SDS011;55800;54.272;18.558;2024-01-16T09:27:03;10.23;;;5.30;;
68806;SDS011;55800;54.272;18.558;2024-01-16T09:29:33;6.37;;;4.07;;
68806;SDS011;55800;54.272;18.558;2024-01-16T09:32:04;7.47;;;4.13;;
68806;SDS011;55800;54.272;18.558;2024-01-16T09:34:34;7.73;;;4.60;;
68806;SDS011;55800;54.272;18.558;2024-01-16T09:37:05;9.25;;;4.95;;
68806;SDS011;55800;54.272;18.558;2024-01-16T09:39:35;7.10;;;3.93;;
68806;SDS011;55800;54.272;18.558;2024-01-16T09:44:34;5.10;;;4.00;;
68806;SDS011;55800;54.272;18.558;2024-01-16T09:47:04;3.40;;;3.20;;
68806;SDS011;55800;54.272;18.558;2024-01-16T09:49:35;4.33;;;3.93;;
68806;SDS011;55800;54.272;18.558;2024-01-16T09:52:08;4.07;;;3.77;;
68806;SDS011;55800;54.272;18.558;2024-01-16T09:54:37;4.57;;;3.50;;
68806;SDS011;55800;54.272;18.558;2024-01-16T09:57:07;5.10;;;3.42;;
68806;SDS011;55800;54.272;18.558;2024-01-16T09:59:39;3.13;;;2.93;;
68806;SDS011;55800;54.272;18.558;2024-01-16T10:02:10;8.30;;;4.43;;
68806;SDS011;55800;54.272;18.558;2024-01-16T10:04:40;5.07;;;4.00;;
68806;SDS011;55800;54.272;18.558;2024-01-16T10:07:12;7.63;;;4.23;;
68806;SDS011;55800;54.272;18.558;2024-01-16T10:09:43;4.60;;;4.00;;
68806;SDS011;55800;54.272;18.558;2024-01-16T10:12:13;20.13;;;4.82;;
68806;SDS011;55800;54.272;18.558;2024-01-16T10:14:42;7.80;;;3.85;;
68806;SDS011;55800;54.272;18.558;2024-01-16T10:17:14;5.53;;;4.17;;
68806;SDS011;55800;54.272;18.558;2024-01-16T10:19:48;3.90;;;3.60;;
68806;SDS011;55800;54.272;18.558;2024-01-16T10:22:21;4.00;;;3.10;;
68806;SDS011;55800;54.272;18.558;2024-01-16T10:25:03;4.13;;;3.43;;
68806;SDS011;55800;54.272;18.558;2024-01-16T10:27:34;3.03;;;2.80;;
68806;SDS011;55800;54.272;18.558;2024-01-16T10:30:04;4.07;;;3.78;;
68806;SDS011;55800;54.272;18.558;2024-01-16T10:32:35;9.73;;;4.30;;
68806;SDS011;55800;54.272;18.558;2024-01-16T10:35:07;7.03;;;3.90;;
68806;SDS011;55800;54.272;18.558;2024-01-16T10:37:46;5.77;;;4.27;;
68806;SDS011;55800;54.272;18.558;2024-01-16T10:40:17;9.27;;;5.45;;
68806;SDS011;55800;54.272;18.558;2024-01-16T10:42:57;9.13;;;4.20;;
68806;SDS011;55800;54.272;18.558;2024-01-16T10:45:28;8.23;;;3.80;;
68806;SDS011;55800;54.272;18.558;2024-01-16T10:48:02;4.07;;;3.70;;
68806;SDS011;55800;54.272;18.558;2024-01-16T10:50:33;4.15;;;3.83;;
68806;SDS011;55800;54.272;18.558;2024-01-16T10:53:06;3.95;;;3.58;;
68806;SDS011;55800;54.272;18.558;2024-01-16T10:55:38;3.70;;;3.40;;
68806;SDS011;55800;54.272;18.558;2024-01-16T10:58:11;4.80;;;3.03;;
68806;SDS011;55800;54.272;18.558;2024-01-16T11:00:42;3.78;;;3.00;;
68806;SDS011;55800;54.272;18.558;2024-01-16T11:03:16;3.20;;;3.00;;
68806;SDS011;55800;54.272;18.558;2024-01-16T11:05:51;6.80;;;3.10;;
68806;SDS011;55800;54.272;18.558;2024-01-16T11:08:24;3.30;;;3.03;;
68806;SDS011;55800;54.272;18.558;2024-01-16T11:10:58;4.72;;;3.42;;
68806;SDS011;55800;54.272;18.558;2024-01-16T11:13:31;2.80;;;2.60;;
68806;SDS011;55800;54.272;18.558;2024-01-16T11:16:02;5.20;;;4.05;;
68806;SDS011;55800;54.272;18.558;2024-01-16T11:18:33;6.90;;;3.25;;
68806;SDS011;55800;54.272;18.558;2024-01-16T11:21:04;5.70;;;3.92;;
68806;SDS011;55800;54.272;18.558;2024-01-16T11:23:42;8.32;;;3.13;;
68806;SDS011;55800;54.272;18.558;2024-01-16T11:26:26;4.43;;;3.15;;
68806;SDS011;55800;54.272;18.558;2024-01-16T11:29:00;3.28;;;2.90;;
68806;SDS011;55800;54.272;18.558;2024-01-16T11:31:45;3.13;;;2.92;;
68806;SDS011;55800;54.272;18.558;2024-01-16T11:34:14;3.10;;;2.80;;
68806;SDS011;55800;54.272;18.558;2024-01-16T11:37:04;4.10;;;3.38;;
68806;SDS011;55800;54.272;18.558;2024-01-16T11:39:37;2.97;;;2.78;;
68806;SDS011;55800;54.272;18.558;2024-01-16T11:42:07;3.53;;;2.92;;
68806;SDS011;55800;54.272;18.558;2024-01-16T11:44:41;6.18;;;3.50;;
68806;SDS011;55800;54.272;18.558;2024-01-16T11:47:15;2.92;;;2.72;;
68806;SDS011;55800;54.272;18.558;2024-01-16T11:49:46;5.72;;;3.40;;
68806;SDS011;55800;54.272;18.558;2024-01-16T11:52:18;2.58;;;2.45;;
68806;SDS011;55800;54.272;18.558;2024-01-16T11:55:26;5.30;;;3.42;;
68806;SDS011;55800;54.272;18.558;2024-01-16T11:58:04;3.13;;;2.78;;
68806;SDS011;55800;54.272;18.558;2024-01-16T12:00:53;5.20;;;3.30;;
68806;SDS011;55800;54.272;18.558;2024-01-16T12:03:24;6.35;;;3.47;;
68806;SDS011;55800;54.272;18.558;2024-01-16T12:06:01;3.50;;;3.15;;
68806;SDS011;55800;54.272;18.558;2024-01-16T12:08:34;3.28;;;2.97;;
68806;SDS011;55800;54.272;18.558;2024-01-16T12:11:06;3.55;;;3.10;;
68806;SDS011;55800;54.272;18.558;2024-01-16T12:13:36;4.80;;;3.60;;
68806;SDS011;55800;54.272;18.558;2024-01-16T12:16:06;4.38;;;4.00;;
68806;SDS011;55800;54.272;18.558;2024-01-16T12:18:35;3.30;;;3.00;;
68806;SDS011;55800;54.272;18.558;2024-01-16T12:21:12;3.83;;;3.33;;
68806;SDS011;55800;54.272;18.558;2024-01-16T12:23:43;2.85;;;2.65;;
68806;SDS011;55800;54.272;18.558;2024-01-16T12:26:27;3.90;;;3.53;;
68806;SDS011;55800;54.272;18.558;2024-01-16T12:28:57;3.55;;;3.25;;
68806;SDS011;55800;54.272;18.558;2024-01-16T12:31:27;4.53;;;3.67;;
68806;SDS011;55800;54.272;18.558;2024-01-16T12:34:06;3.63;;;3.25;;
68806;SDS011;55800;54.272;18.558;2024-01-16T12:36:37;5.82;;;3.35;;
68806;SDS011;55800;54.272;18.558;2024-01-16T12:39:06;4.97;;;3.40;;
68806;SDS011;55800;54.272;18.558;2024-01-16T12:41:42;3.55;;;3.28;;
68806;SDS011;55800;54.272;18.558;2024-01-16T12:44:13;8.45;;;3.58;;
68806;SDS011;55800;54.272;18.558;2024-01-16T12:46:44;4.00;;;3.60;;
68806;SDS011;55800;54.272;18.558;2024-01-16T12:49:23;3.40;;;3.13;;
68806;SDS011;55800;54.272;18.558;2024-01-16T12:54:44;8.32;;;4.47;;
68806;SDS011;55800;54.272;18.558;2024-01-16T12:57:18;7.60;;;4.40;;
68806;SDS011;55800;54.272;18.558;2024-01-16T12:59:48;7.18;;;4.20;;
68806;SDS011;55800;54.272;18.558;2024-01-16T13:02:19;6.68;;;3.63;;
68806;SDS011;55800;54.272;18.558;2024-01-16T13:04:58;4.85;;;4.45;;
68806;SDS011;55800;54.272;18.558;2024-01-16T13:07:30;4.13;;;3.70;;
68806;SDS011;55800;54.272;18.558;2024-01-16T13:10:07;7.35;;;3.78;;
68806;SDS011;55800;54.272;18.558;2024-01-16T13:12:41;4.63;;;3.70;;
68806;SDS011;55800;54.272;18.558;2024-01-16T13:15:10;3.33;;;3.13;;
68806;SDS011;55800;54.272;18.558;2024-01-16T13:17:44;3.35;;;2.88;;
68806;SDS011;55800;54.272;18.558;2024-01-16T13:20:15;4.30;;;3.37;;
68806;SDS011;55800;54.272;18.558;2024-01-16T13:22:45;4.43;;;3.65;;
68806;SDS011;55800;54.272;18.558;2024-01-16T13:25:16;11.70;;;5.33;;
68806;SDS011;55800;54.272;18.558;2024-01-16T13:27:47;4.22;;;2.88;;
68806;SDS011;55800;54.272;18.558;2024-01-16T13:30:16;3.30;;;3.00;;
68806;SDS011;55800;54.272;18.558;2024-01-16T13:32:48;3.08;;;2.88;;
68806;SDS011;55800;54.272;18.558;2024-01-16T13:35:17;3.63;;;3.00;;
68806;SDS011;55800;54.272;18.558;2024-01-16T13:37:47;2.80;;;2.60;;
68806;SDS011;55800;54.272;18.558;2024-01-16T13:40:17;3.28;;;3.00;;
68806;SDS011;55800;54.272;18.558;2024-01-16T13:42:52;3.97;;;3.43;;
68806;SDS011;55800;54.272;18.558;2024-01-16T13:45:22;4.07;;;2.95;;
68806;SDS011;55800;54.272;18.558;2024-01-16T13:47:52;3.55;;;3.35;;
68806;SDS011;55800;54.272;18.558;2024-01-16T13:50:21;3.42;;;3.05;;
68806;SDS011;55800;54.272;18.558;2024-01-16T13:55:20;8.48;;;3.95;;
68806;SDS011;55800;54.272;18.558;2024-01-16T13:57:50;4.10;;;3.80;;
68806;SDS011;55800;54.272;18.558;2024-01-16T14:00:22;7.90;;;4.37;;
68806;SDS011;55800;54.272;18.558;2024-01-16T14:02:53;7.73;;;5.20;;
68806;SDS011;55800;54.272;18.558;2024-01-16T14:05:24;12.47;;;5.60;;
68806;SDS011;55800;54.272;18.558;2024-01-16T14:07:54;11.00;;;5.30;;
68806;SDS011;55800;54.272;18.558;2024-01-16T14:10:23;9.75;;;6.38;;
68806;SDS011;55800;54.272;18.558;2024-01-16T14:12:55;10.82;;;6.18;;
68806;SDS011;55800;54.272;18.558;2024-01-16T14:15:24;11.73;;;6.63;;
68806;SDS011;55800;54.272;18.558;2024-01-16T14:17:54;9.98;;;6.10;;
68806;SDS011;55800;54.272;18.558;2024-01-16T14:20:25;9.93;;;7.00;;
68806;SDS011;55800;54.272;18.558;2024-01-16T14:25:24;8.00;;;5.88;;
68806;SDS011;55800;54.272;18.558;2024-01-16T14:27:59;13.38;;;6.93;;
68806;SDS011;55800;54.272;18.558;2024-01-16T14:30:31;12.27;;;6.93;;
68806;SDS011;55800;54.272;18.558;2024-01-16T14:33:02;13.70;;;6.87;;
68806;SDS011;55800;54.272;18.558;2024-01-16T14:35:34;13.40;;;7.63;;
68806;SDS011;55800;54.272;18.558;2024-01-16T14:38:03;12.65;;;7.10;;
68806;SDS011;55800;54.272;18.558;2024-01-16T14:40:33;11.95;;;7.20;;
68806;SDS011;55800;54.272;18.558;2024-01-16T14:43:04;21.95;;;8.63;;
68806;SDS011;55800;54.272;18.558;2024-01-16T14:45:33;23.97;;;11.83;;
68806;SDS011;55800;54.272;18.558;2024-01-16T14:48:03;34.17;;;13.85;;
68806;SDS011;55800;54.272;18.558;2024-01-16T14:50:33;25.23;;;12.03;;
68806;SDS011;55800;54.272;18.558;2024-01-16T14:53:03;27.33;;;11.77;;
68806;SDS011;55800;54.272;18.558;2024-01-16T14:55:33;21.25;;;12.45;;
68806;SDS011;55800;54.272;18.558;2024-01-16T14:58:05;18.30;;;9.87;;
68806;SDS011;55800;54.272;18.558;2024-01-16T15:00:35;15.37;;;9.20;;
68806;SDS011;55800;54.272;18.558;2024-01-16T15:03:05;15.30;;;9.60;;
68806;SDS011;55800;54.272;18.558;2024-01-16T15:05:35;17.38;;;9.40;;
68806;SDS011;55800;54.272;18.558;2024-01-16T15:08:04;17.17;;;9.45;;
68806;SDS011;55800;54.272;18.558;2024-01-16T15:10:34;17.13;;;9.77;;
68806;SDS011;55800;54.272;18.558;2024-01-16T15:13:05;21.37;;;9.97;;